createdAt,value
2019-01-10T00:00:59.331Z,101999.01
2019-01-10T00:03:25.092Z,101999.75
2019-01-10T00:05:50.869Z,101996.34
2019-01-10T00:08:16.634Z,102004.70
2019-01-10T00:10:42.507Z,102009.20
2019-01-10T00:13:08.263Z,102006.16
2019-01-10T00:15:34.017Z,102001.67
2019-01-10T00:17:59.803Z,102003.95
2019-01-10T00:20:25.554Z,102006.78
2019-01-10T00:22:51.324Z,102014.23
2019-01-10T00:25:17.076Z,102015.68
2019-01-10T00:27:42.853Z,102014.35
2019-01-10T00:30:50.287Z,102012.27
2019-01-10T00:33:16.154Z,102013.14
2019-01-10T00:35:41.901Z,102010.23
2019-01-10T00:38:07.678Z,102009.61
2019-01-10T00:40:33.429Z,102017.84
2019-01-10T00:42:59.200Z,102017.77
2019-01-10T00:45:24.948Z,102021.27
2019-01-10T00:50:44.908Z,102019.72
2019-01-10T00:53:11.102Z,102025.38
2019-01-10T00:55:36.856Z,102030.86
2019-01-10T00:58:44.297Z,102028.08
2019-01-10T01:01:10.054Z,102027.50
2019-01-10T01:03:35.821Z,102029.04
2019-01-10T01:06:02.027Z,102028.92
2019-01-10T01:08:27.794Z,102034.36
2019-01-10T01:10:53.744Z,102034.86
2019-01-10T01:13:19.545Z,102032.08
2019-01-10T01:15:45.312Z,102037.89
2019-01-10T01:18:24.272Z,102046.92
2019-01-10T01:20:50.050Z,102046.92
2019-01-10T01:23:15.799Z,102051.59
2019-01-10T01:25:41.558Z,102050.97
2019-01-10T01:28:07.314Z,102048.63
2019-01-10T01:30:33.085Z,102050.92
2019-01-10T01:32:58.841Z,102060.09
2019-01-10T01:35:24.605Z,102061.44
2019-01-10T01:37:50.372Z,102061.52
2019-01-10T01:43:29.784Z,102058.02
2019-01-10T01:45:55.543Z,102057.27
2019-01-10T01:48:21.297Z,102055.36
2019-01-10T01:50:47.068Z,102072.08
2019-01-10T01:53:12.829Z,102074.50
2019-01-10T01:55:38.593Z,102072.80
2019-01-10T01:58:04.356Z,102074.13
2019-01-10T02:00:30.216Z,102067.54
2019-01-10T02:02:55.970Z,102073.65
2019-01-10T02:05:21.736Z,102080.30
2019-01-10T02:07:47.602Z,102078.39
2019-01-10T02:10:55.061Z,102080.97
2019-01-10T02:13:20.828Z,102079.72
2019-01-10T02:15:46.685Z,102090.63
2019-01-10T02:18:12.436Z,102090.05
2019-01-10T02:20:38.207Z,102090.28
2019-01-10T02:23:03.957Z,102090.11
2019-01-10T02:28:07.791Z,102095.78
2019-01-10T02:30:41.837Z,102092.38
2019-01-10T02:33:01.211Z,102098.97
2019-01-10T02:35:26.968Z,102106.46
2019-01-10T02:37:52.722Z,102113.45
2019-01-10T02:40:18.469Z,102103.30
2019-01-10T02:42:44.239Z,102104.58
2019-01-10T02:45:51.657Z,102099.83
2019-01-10T02:48:19.510Z,102104.58
2019-01-10T02:50:45.077Z,102105.99
2019-01-10T02:53:10.847Z,102115.42
2019-01-10T02:55:36.618Z,102111.25
2019-01-10T02:58:02.379Z,102111.83
2019-01-10T03:00:28.157Z,102110.23
2019-01-10T03:02:53.884Z,102119.37
2019-01-10T03:08:46.715Z,102113.53
2019-01-10T03:11:12.467Z,102118.66
2019-01-10T03:13:38.334Z,102115.53
2019-01-10T03:16:04.097Z,102115.62
2019-01-10T03:18:29.862Z,102110.67
2019-01-10T03:20:55.638Z,102108.88
2019-01-10T03:23:21.397Z,102103.07
2019-01-10T03:25:47.147Z,102108.77
2019-01-10T03:28:12.922Z,102106.94
2019-01-10T03:30:38.669Z,102103.64
2019-01-10T03:33:04.447Z,102102.81
2019-01-10T03:35:30.196Z,102092.37
2019-01-10T03:37:56.018Z,102092.94
2019-01-10T03:40:21.745Z,102093.06
2019-01-10T03:42:47.608Z,102094.27
2019-01-10T03:45:55.041Z,102095.34
2019-01-10T03:48:20.812Z,102094.02
2019-01-10T03:50:46.566Z,102088.95
2019-01-10T03:55:44.630Z,102085.59
2019-01-10T03:58:10.382Z,102090.92
2019-01-10T04:00:36.153Z,102083.48
2019-01-10T04:03:01.907Z,102088.61
2019-01-10T04:05:27.673Z,102084.24
2019-01-10T04:07:53.432Z,102090.34
2019-01-10T04:10:19.200Z,102078.11
2019-01-10T04:12:44.962Z,102087.42
2019-01-10T04:15:52.406Z,102088.75
2019-01-10T04:18:18.159Z,102090.34
2019-01-10T04:20:43.935Z,102090.08
2019-01-10T04:23:09.680Z,102089.50
2019-01-10T04:25:35.441Z,102088.44
2019-01-10T04:28:01.201Z,102085.77
2019-01-10T04:30:26.968Z,102083.81
2019-01-10T04:32:52.715Z,102078.95
2019-01-10T04:35:18.490Z,102087.73
2019-01-10T04:37:44.236Z,102097.13
2019-01-10T04:40:51.694Z,102102.45
2019-01-10T04:43:17.468Z,102098.00
2019-01-10T04:45:43.229Z,102095.60
2019-01-10T04:48:08.992Z,102096.73
2019-01-10T04:50:34.768Z,102098.33
2019-01-10T04:53:00.551Z,102111.83
2019-01-10T04:55:26.297Z,102108.79
2019-01-10T04:57:53.124Z,102103.01
2019-01-10T05:01:01.391Z,102101.19
2019-01-10T05:03:27.163Z,102106.05
2019-01-10T05:05:52.930Z,102097.57
2019-01-10T05:08:18.678Z,102099.48
2019-01-10T05:10:44.453Z,102095.48
2019-01-10T05:13:10.221Z,102096.09
2019-01-10T05:15:35.980Z,102101.48
2019-01-10T05:18:01.748Z,102098.24
2019-01-10T05:20:27.541Z,102104.52
2019-01-10T05:22:53.304Z,102103.39
2019-01-10T05:25:19.069Z,102094.39
2019-01-10T05:27:44.886Z,102102.37
2019-01-10T05:30:52.307Z,102109.61
2019-01-10T05:33:18.058Z,102107.94
2019-01-10T05:35:43.821Z,102107.31
2019-01-10T05:38:09.577Z,102099.00
2019-01-10T05:40:35.341Z,102102.69
2019-01-10T05:43:01.117Z,102100.41
2019-01-10T05:45:26.884Z,102105.55
2019-01-10T05:47:52.631Z,102100.46
2019-01-10T05:50:18.496Z,102101.52
2019-01-10T05:52:44.257Z,102108.17
2019-01-10T05:55:29.903Z,102113.30
2019-01-10T05:57:55.655Z,102118.61
2019-01-10T06:00:41.316Z,102135.13
2019-01-10T06:03:07.087Z,102137.52
2019-01-10T06:05:32.846Z,102132.28
2019-01-10T06:07:58.598Z,102133.23
2019-01-10T06:13:38.438Z,102133.88
2019-01-10T06:16:04.311Z,102132.36
2019-01-10T06:18:30.061Z,102130.66
2019-01-10T06:20:55.854Z,102137.86
2019-01-10T06:23:21.604Z,102135.39
2019-01-10T06:25:47.388Z,102138.55
2019-01-10T06:28:13.141Z,102135.59
2019-01-10T06:30:38.918Z,102139.39
2019-01-10T06:33:04.679Z,102132.17
2019-01-10T06:35:30.467Z,102137.00
2019-01-10T06:37:56.231Z,102138.06
2019-01-10T06:40:22.017Z,102142.91
2019-01-10T06:42:47.812Z,102135.51
2019-01-10T06:45:55.243Z,102136.84
2019-01-10T06:48:20.993Z,102137.14
2019-01-10T06:50:46.758Z,102133.23
2019-01-10T06:53:12.517Z,102136.95
2019-01-10T06:55:38.265Z,102137.52
2019-01-10T06:58:04.055Z,102148.16
2019-01-10T07:00:29.827Z,102141.42
2019-01-10T07:02:55.605Z,102145.69
2019-01-10T07:05:21.359Z,102147.02
2019-01-10T07:07:55.853Z,102146.63
2019-01-10T07:10:56.491Z,102155.29
2019-01-10T07:13:22.256Z,102148.72
2019-01-10T07:15:47.999Z,102156.32
2019-01-10T07:18:13.787Z,102157.08
2019-01-10T07:20:39.544Z,102156.91
2019-01-10T07:23:05.314Z,102162.98
2019-01-10T07:26:12.753Z,102158.27
2019-01-10T07:28:38.522Z,102158.27
2019-01-10T07:31:45.964Z,102163.09
2019-01-10T07:34:11.731Z,102169.81
2019-01-10T07:36:37.501Z,102173.80
2019-01-10T07:39:44.924Z,102170.30
2019-01-10T07:42:10.694Z,102175.42
2019-01-10T07:44:36.439Z,102171.25
2019-01-10T07:47:02.204Z,102176.37
2019-01-10T07:49:28.057Z,102177.33
2019-01-10T07:51:53.823Z,102183.03
2019-01-10T07:54:19.584Z,102192.78
2019-01-10T07:56:45.328Z,102181.20
2019-01-10T07:59:11.102Z,102189.47
2019-01-10T08:01:36.958Z,102189.47
2019-01-10T08:04:02.821Z,102197.05
2019-01-10T08:06:28.587Z,102202.45
2019-01-10T08:08:54.344Z,102199.70
2019-01-10T08:11:20.105Z,102206.25
2019-01-10T08:13:45.865Z,102206.66
2019-01-10T08:16:11.643Z,102212.89
2019-01-10T08:18:37.427Z,102216.13
2019-01-10T08:21:03.188Z,102214.96
2019-01-10T08:23:28.953Z,102221.23
2019-01-10T08:25:54.738Z,102216.00
2019-01-10T08:28:20.496Z,102216.73
2019-01-10T08:30:46.248Z,102214.34
2019-01-10T08:33:12.036Z,102222.23
2019-01-10T08:35:37.794Z,102213.98
2019-01-10T08:38:03.576Z,102221.75
2019-01-10T08:40:29.341Z,102226.61
2019-01-10T08:42:55.111Z,102223.67
2019-01-10T08:45:21.899Z,102225.35
2019-01-10T08:47:48.545Z,102225.16
2019-01-10T08:53:41.367Z,102232.92
2019-01-10T08:56:07.126Z,102232.42
2019-01-10T08:58:32.897Z,102229.31
2019-01-10T09:00:58.663Z,102231.02
2019-01-10T09:03:24.438Z,102225.55
2019-01-10T09:05:50.188Z,102224.78
2019-01-10T09:08:16.122Z,102225.32
2019-01-10T09:10:41.880Z,102231.13
2019-01-10T09:13:07.645Z,102220.98
2019-01-10T09:15:34.704Z,102223.19
2019-01-10T09:18:01.322Z,102218.81
2019-01-10T09:20:27.192Z,102226.75
2019-01-10T09:22:52.948Z,102220.59
2019-01-10T09:25:18.712Z,102227.58
2019-01-10T09:27:44.461Z,102223.51
2019-01-10T09:30:30.134Z,102229.28
2019-01-10T09:32:55.903Z,102236.17
2019-01-10T09:35:21.683Z,102226.94
2019-01-10T09:37:47.434Z,102218.49
2019-01-10T09:40:54.870Z,102223.90
2019-01-10T09:43:20.680Z,102226.17
2019-01-10T09:45:46.433Z,102233.28
2019-01-10T09:48:12.187Z,102225.59
2019-01-10T09:50:37.955Z,102231.06
2019-01-10T09:53:03.709Z,102226.23
2019-01-10T09:55:29.482Z,102229.59
2019-01-10T09:57:55.267Z,102230.42
2019-01-10T10:01:02.704Z,102235.92
2019-01-10T10:03:28.468Z,102236.75
2019-01-10T10:05:54.334Z,102234.42
2019-01-10T10:08:20.125Z,102240.81
2019-01-10T10:10:45.897Z,102232.53
2019-01-10T10:13:11.644Z,102225.66
2019-01-10T10:15:37.512Z,102229.86
2019-01-10T10:18:03.276Z,102233.83
2019-01-10T10:20:29.054Z,102235.53
2019-01-10T10:22:54.803Z,102238.20
2019-01-10T10:25:20.573Z,102235.59
2019-01-10T10:27:46.353Z,102236.55
2019-01-10T10:30:55.139Z,102242.95
2019-01-10T10:33:21.484Z,102239.41
2019-01-10T10:35:47.243Z,102238.08
2019-01-10T10:38:13.000Z,102239.31
2019-01-10T10:40:38.773Z,102243.22
2019-01-10T10:43:04.519Z,102238.73
2019-01-10T10:45:30.303Z,102237.47
2019-01-10T10:47:56.050Z,102238.09
2019-01-10T10:53:35.952Z,102236.52
2019-01-10T10:56:01.723Z,102239.01
2019-01-10T10:58:27.483Z,102230.12
2019-01-10T11:00:53.326Z,102226.79
2019-01-10T11:03:19.075Z,102227.22
2019-01-10T11:05:44.831Z,102226.75
2019-01-10T11:08:10.599Z,102231.73
2019-01-10T11:10:36.377Z,102235.41
2019-01-10T11:13:02.124Z,102232.70
2019-01-10T11:15:27.897Z,102231.70
2019-01-10T11:17:53.744Z,102231.13
2019-01-10T11:21:01.218Z,102236.77
2019-01-10T11:23:26.973Z,102235.59
2019-01-10T11:25:52.745Z,102232.89
2019-01-10T11:28:18.505Z,102231.77
2019-01-10T11:30:44.267Z,102229.42
2019-01-10T11:33:10.039Z,102225.25
2019-01-10T11:35:35.812Z,102235.16
2019-01-10T11:38:21.545Z,102231.81
2019-01-10T11:40:47.329Z,102231.81
2019-01-10T11:43:13.076Z,102222.23
2019-01-10T11:45:38.845Z,102215.45
2019-01-10T11:48:04.694Z,102215.45
2019-01-10T11:50:30.469Z,102213.23
2019-01-10T11:52:56.227Z,102209.01
2019-01-10T11:55:21.994Z,102213.84
2019-01-10T11:57:47.746Z,102210.13
2019-01-10T12:00:33.493Z,102205.12
2019-01-10T12:02:59.249Z,102205.85
2019-01-10T12:05:25.011Z,102201.82
2019-01-10T12:07:50.874Z,102199.30
2019-01-10T12:10:16.722Z,102197.17
2019-01-10T12:12:42.503Z,102192.02
2019-01-10T12:15:49.959Z,102191.97
2019-01-10T12:18:15.731Z,102189.30
2019-01-10T12:20:41.493Z,102182.89
2019-01-10T12:23:07.271Z,102182.73
2019-01-10T12:25:33.047Z,102181.06
2019-01-10T12:28:18.708Z,102169.61
2019-01-10T12:30:44.459Z,102169.61
2019-01-10T12:33:10.240Z,102179.64
2019-01-10T12:35:35.985Z,102175.41
2019-01-10T12:38:01.767Z,102176.20
2019-01-10T12:40:27.534Z,102181.99
2019-01-10T12:42:53.426Z,102173.73
2019-01-10T12:45:19.279Z,102171.24
2019-01-10T12:47:45.073Z,102166.53
2019-01-10T12:50:30.823Z,102160.70
2019-01-10T12:52:56.611Z,102151.16
2019-01-10T12:55:22.360Z,102157.91
2019-01-10T12:57:48.240Z,102150.75
2019-01-10T13:00:55.665Z,102164.66
2019-01-10T13:03:21.436Z,102155.13
2019-01-10T13:05:47.195Z,102162.69
2019-01-10T13:08:12.982Z,102156.57
2019-01-10T13:10:38.747Z,102155.82
2019-01-10T13:13:04.514Z,102149.16
2019-01-10T13:15:30.281Z,102142.84
2019-01-10T13:17:56.049Z,102150.17
2019-01-10T13:20:21.940Z,102146.59
2019-01-10T13:22:47.705Z,102147.34
2019-01-10T13:25:59.717Z,102151.50
2019-01-10T13:28:22.801Z,102147.30
2019-01-10T13:30:48.549Z,102150.62
2019-01-10T13:33:14.317Z,102141.17
2019-01-10T13:35:40.065Z,102148.87
2019-01-10T13:38:05.854Z,102143.91
2019-01-10T13:40:31.619Z,102138.05
2019-01-10T13:42:57.579Z,102144.92
2019-01-10T13:45:23.330Z,102144.34
2019-01-10T13:51:04.935Z,102152.75
2019-01-10T13:53:30.709Z,102153.25
2019-01-10T13:55:56.457Z,102164.28
2019-01-10T13:58:22.272Z,102159.08
2019-01-10T14:00:48.071Z,102160.50
2019-01-10T14:03:13.945Z,102156.71
2019-01-10T14:05:39.714Z,102155.21
2019-01-10T14:08:47.179Z,102152.04
2019-01-10T14:11:12.952Z,102150.66
2019-01-10T14:13:38.713Z,102158.53
2019-01-10T14:16:04.565Z,102150.83
2019-01-10T14:18:30.337Z,102157.81
2019-01-10T14:20:56.109Z,102163.02
2019-01-10T14:23:21.900Z,102154.28
2019-01-10T14:25:47.647Z,102155.45
2019-01-10T14:28:13.439Z,102156.73
2019-01-10T14:30:39.217Z,102159.35
2019-01-10T14:33:46.655Z,102156.36
2019-01-10T14:36:12.409Z,102154.86
2019-01-10T14:38:38.294Z,102158.65
2019-01-10T14:41:04.046Z,102151.29
2019-01-10T14:43:29.836Z,102141.87
2019-01-10T14:45:55.583Z,102145.75
2019-01-10T14:48:21.353Z,102147.58
2019-01-10T14:50:47.110Z,102151.95
2019-01-10T14:53:12.890Z,102151.78
2019-01-10T14:55:38.639Z,102149.28
2019-01-10T14:58:46.084Z,102140.38
2019-01-10T15:01:11.845Z,102135.42
2019-01-10T15:03:37.630Z,102126.84
2019-01-10T15:06:03.377Z,102127.22
2019-01-10T15:08:29.139Z,102132.55
2019-01-10T15:10:54.890Z,102123.60
2019-01-10T15:13:20.669Z,102134.25
2019-01-10T15:15:46.419Z,102135.80
2019-01-10T15:18:12.321Z,102142.88
2019-01-10T15:20:38.081Z,102136.80
2019-01-10T15:25:57.847Z,102127.47
2019-01-10T15:28:23.626Z,102132.22
2019-01-10T15:30:49.376Z,102124.34
2019-01-10T15:33:15.134Z,102123.59
2019-01-10T15:35:40.904Z,102128.67
2019-01-10T15:38:06.659Z,102128.67
2019-01-10T15:40:32.426Z,102127.29
2019-01-10T15:42:58.295Z,102119.09
2019-01-10T15:45:24.181Z,102120.14
2019-01-10T15:47:49.952Z,102121.84
2019-01-10T15:50:57.398Z,102114.67
2019-01-10T15:53:23.176Z,102111.27
2019-01-10T15:55:49.037Z,102110.77
2019-01-10T15:58:14.791Z,102118.67
2019-01-10T16:00:40.558Z,102108.98
2019-01-10T16:03:06.316Z,102104.16
2019-01-10T16:05:32.119Z,102111.89
2019-01-10T16:07:57.848Z,102103.63
2019-01-10T16:10:23.630Z,102094.25
2019-01-10T16:12:49.793Z,102102.25
2019-01-10T16:15:58.733Z,102108.52
2019-01-10T16:18:24.506Z,102107.94
2019-01-10T16:20:50.292Z,102105.52
2019-01-10T16:23:16.043Z,102108.68
2019-01-10T16:25:41.824Z,102100.81
2019-01-10T16:28:07.577Z,102102.60
2019-01-10T16:30:33.334Z,102097.36
2019-01-10T16:32:59.099Z,102099.99
2019-01-10T16:35:24.849Z,102093.83
2019-01-10T16:37:50.612Z,102095.55
2019-01-10T16:40:58.055Z,102098.13
2019-01-10T16:43:23.833Z,102095.66
2019-01-10T16:45:49.584Z,102088.38
2019-01-10T16:48:15.357Z,102094.48
2019-01-10T16:50:41.105Z,102100.06
2019-01-10T16:53:06.871Z,102095.28
2019-01-10T16:55:32.622Z,102084.59
2019-01-10T16:57:58.392Z,102084.55
2019-01-10T17:00:44.034Z,102082.72
2019-01-10T17:03:09.805Z,102085.92
2019-01-10T17:05:35.565Z,102083.84
2019-01-10T17:08:01.325Z,102074.44
2019-01-10T17:10:27.081Z,102075.98
2019-01-10T17:12:52.851Z,102075.66
2019-01-10T17:15:18.609Z,102072.48
2019-01-10T17:17:44.392Z,102070.12
2019-01-10T17:23:37.231Z,102069.03
2019-01-10T17:26:02.995Z,102068.20
2019-01-10T17:28:28.756Z,102071.15
2019-01-10T17:30:54.515Z,102080.89
2019-01-10T17:33:20.297Z,102068.86
2019-01-10T17:35:46.046Z,102052.25
2019-01-10T17:38:11.918Z,102051.13
2019-01-10T17:40:37.672Z,102051.25
2019-01-10T17:43:45.137Z,102049.05
2019-01-10T17:46:30.795Z,102050.87
2019-01-10T17:48:56.664Z,102059.95
2019-01-10T17:51:22.426Z,102062.25
2019-01-10T17:53:48.190Z,102057.37
2019-01-10T17:56:13.988Z,102049.75
2019-01-10T17:58:39.753Z,102046.02
2019-01-10T18:01:05.512Z,102044.06
2019-01-10T18:03:31.278Z,102045.77
2019-01-10T18:05:57.033Z,102041.72
2019-01-10T18:08:22.816Z,102051.92
2019-01-10T18:10:48.574Z,102049.17
2019-01-10T18:13:14.419Z,102052.53
2019-01-10T18:15:40.173Z,102050.59
2019-01-10T18:18:06.034Z,102051.09
2019-01-10T18:21:15.116Z,102055.01
2019-01-10T18:23:41.176Z,102056.34
2019-01-10T18:26:06.944Z,102044.43
2019-01-10T18:28:32.700Z,102055.08
2019-01-10T18:30:59.765Z,102043.14
2019-01-10T18:33:26.154Z,102046.41
2019-01-10T18:36:11.809Z,102047.95
2019-01-10T18:38:37.566Z,102047.95
2019-01-10T18:41:03.334Z,102052.20
2019-01-10T18:43:29.092Z,102051.63
2019-01-10T18:45:54.857Z,102053.50
2019-01-10T18:48:20.632Z,102060.23
2019-01-10T18:50:46.521Z,102054.61
2019-01-10T18:53:12.330Z,102053.73
2019-01-10T18:55:38.099Z,102053.28
2019-01-10T18:58:03.861Z,102047.75
2019-01-10T19:00:29.641Z,102041.67
2019-01-10T19:03:37.062Z,102048.13
2019-01-10T19:06:02.844Z,102047.88
2019-01-10T19:08:28.598Z,102047.37
2019-01-10T19:10:54.387Z,102050.50
2019-01-10T19:13:20.144Z,102054.44
2019-01-10T19:15:45.931Z,102055.56
2019-01-10T19:18:11.680Z,102046.83
2019-01-10T19:20:37.439Z,102054.64
2019-01-10T19:23:03.236Z,102055.72
2019-01-10T19:25:29.006Z,102050.89
2019-01-10T19:27:54.791Z,102046.52
2019-01-10T19:30:40.416Z,102041.90
2019-01-10T19:33:06.207Z,102040.66
2019-01-10T19:35:31.958Z,102048.47
2019-01-10T19:37:57.748Z,102049.45
2019-01-10T19:43:50.572Z,102036.55
2019-01-10T19:46:16.329Z,102038.95
2019-01-10T19:48:42.112Z,102039.42
2019-01-10T19:51:07.882Z,102038.29
2019-01-10T19:53:33.649Z,102038.29
2019-01-10T19:55:59.427Z,102040.31
2019-01-10T19:58:25.213Z,102038.84
2019-01-10T20:00:51.079Z,102030.11
2019-01-10T20:03:16.840Z,102028.78
2019-01-10T20:05:42.588Z,102027.53
2019-01-10T20:08:08.386Z,102020.05
2019-01-10T20:10:34.266Z,102018.83
2019-01-10T20:13:00.084Z,102013.39
2019-01-10T20:15:25.809Z,102008.91
2019-01-10T20:17:51.578Z,102014.84
2019-01-10T20:20:59.016Z,102006.75
2019-01-10T20:23:24.784Z,102007.96
2019-01-10T20:25:50.539Z,102005.42
2019-01-10T20:28:16.336Z,102000.84
2019-01-10T20:30:42.091Z,101997.61
2019-01-10T20:33:07.860Z,101991.62
2019-01-10T20:35:33.821Z,101998.19
2019-01-10T20:37:59.703Z,101998.56
2019-01-10T20:40:25.554Z,101985.21
2019-01-10T20:42:51.320Z,101993.63
2019-01-10T20:45:17.281Z,101989.63
2019-01-10T20:47:43.151Z,101986.27
2019-01-10T20:50:28.788Z,101989.14
2019-01-10T20:52:54.546Z,101994.83
2019-01-10T20:55:20.337Z,101996.42
2019-01-10T20:57:46.108Z,101996.91
2019-01-10T21:00:53.544Z,101991.80
2019-01-10T21:03:19.341Z,101985.83
2019-01-10T21:05:45.195Z,101990.27
2019-01-10T21:10:49.085Z,101981.91
2019-01-10T21:13:14.853Z,101983.56
2019-01-10T21:15:40.603Z,101973.75
2019-01-10T21:18:06.375Z,101974.02
2019-01-10T21:20:32.254Z,101972.48
2019-01-10T21:25:36.219Z,101973.24
2019-01-10T21:28:01.977Z,101963.70
2019-01-10T21:30:27.839Z,101959.33
2019-01-10T21:32:53.582Z,101961.03
2019-01-10T21:35:19.546Z,101957.16
2019-01-10T21:38:26.989Z,101953.88
2019-01-10T21:44:00.055Z,101947.28
2019-01-10T21:46:25.808Z,101946.78
2019-01-10T21:48:51.583Z,101943.08
2019-01-10T21:51:17.340Z,101934.98
2019-01-10T21:53:43.103Z,101934.73
2019-01-10T21:56:08.967Z,101929.03
2019-01-10T21:58:34.725Z,101932.06
2019-01-10T22:07:01.041Z,101928.91
2019-01-10T22:09:26.860Z,101920.52
2019-01-10T22:11:52.626Z,101915.78
2019-01-10T22:14:18.416Z,101908.75
2019-01-10T22:16:44.179Z,101903.81
2019-01-10T22:19:09.953Z,101908.55
2019-01-10T22:21:35.713Z,101903.73
2019-01-10T22:24:01.477Z,101910.25
2019-01-10T22:26:27.238Z,101905.55
2019-01-10T22:28:53.006Z,101904.31
2019-01-10T22:31:18.778Z,101896.50
2019-01-10T22:33:51.372Z,101896.62
2019-01-10T22:36:17.121Z,101894.09
2019-01-10T22:38:42.876Z,101890.72
2019-01-10T22:41:08.659Z,101887.81
2019-01-10T22:43:34.419Z,101883.56
2019-01-10T22:46:00.186Z,101878.83
2019-01-10T22:48:25.940Z,101852.59
2019-01-10T22:50:51.711Z,101847.49
2019-01-10T22:53:17.458Z,101859.63
2019-01-10T22:55:43.245Z,101851.15
2019-01-10T22:58:09.013Z,101852.97
2019-01-10T23:03:48.221Z,101844.20
2019-01-10T23:06:14.014Z,101833.17
2019-01-10T23:11:53.428Z,101826.19
2019-01-10T23:14:19.179Z,101828.85
2019-01-10T23:16:44.950Z,101821.86
2019-01-10T23:19:10.697Z,101806.48
2019-01-10T23:21:36.574Z,101801.99
2019-01-10T23:24:44.026Z,101807.22
2019-01-10T23:27:09.781Z,101804.78
2019-01-10T23:29:35.648Z,101802.73
2019-01-10T23:32:43.093Z,101790.55
2019-01-10T23:35:08.906Z,101783.17
2019-01-10T23:37:34.670Z,101784.13
2019-01-10T23:40:00.449Z,101779.46
2019-01-10T23:42:26.305Z,101779.46
2019-01-10T23:44:52.080Z,101770.77
2019-01-10T23:47:17.838Z,101777.20
2019-01-10T23:49:43.593Z,101785.30
2019-01-10T23:52:09.367Z,101780.98
2019-01-10T23:54:35.127Z,101774.20
2019-01-10T23:57:00.893Z,101766.69
2019-01-10T23:59:26.672Z,101775.19
